Terminal Aerodrome Forecast
Issued by NWS

Home | Current Version | Previous Version | Text Only | Print | Product List | Glossary On
Versions: 1 2 3 4 5 6 7 8 9 10 11 12 13 14 15 16 17 18 19 20 21 22 23 24 25 26 27 28 29 30 31 32 33 34 35 36
000
FTAK31 PAFC 172340
TAFADQ
TAF
PADQ 172340Z 1800/1824 12011KT 5SM -RA BR OVC025
     FM180200 15011KT 4SM -SHRA BR OVC015
     FM181900 20012G20KT P6SM -SHRA SCT020 BKN035=

USA.gov is the U.S. government's official web portal to all federal, state and local government web resources and services.